createdAt,value
2022-12-29T00:00:16.969Z,2.70
2022-12-29T00:02:43.855Z,2.83
2022-12-29T00:05:10.736Z,1.77
2022-12-29T00:07:37.573Z,4.35
2022-12-29T00:10:04.886Z,3.10
2022-12-29T00:12:51.559Z,2.33
2022-12-29T00:15:36.755Z,2.50
2022-12-29T00:18:03.754Z,3.33
2022-12-29T00:20:49.062Z,3.83
2022-12-29T00:23:34.460Z,3.70
2022-12-29T00:26:23.158Z,2.22
2022-12-29T00:29:10.125Z,2.58
2022-12-29T00:31:55.441Z,1.92
2022-12-29T00:34:40.806Z,2.10
2022-12-29T00:37:07.601Z,2.95
2022-12-29T00:39:52.761Z,1.80
2022-12-29T00:42:37.891Z,2.50
2022-12-29T00:45:05.027Z,1.45
2022-12-29T00:47:31.679Z,3.50
2022-12-29T00:49:58.356Z,2.83
2022-12-29T00:52:25.058Z,3.05
2022-12-29T00:54:51.738Z,1.52
2022-12-29T00:57:18.601Z,1.80
2022-12-29T00:59:46.187Z,1.40
2022-12-29T01:02:13.002Z,1.88
2022-12-29T01:04:39.950Z,1.70
2022-12-29T01:07:06.821Z,1.40
2022-12-29T01:09:52.723Z,2.80
2022-12-29T01:12:39.512Z,1.05
2022-12-29T01:15:07.231Z,3.42
2022-12-29T01:17:34.073Z,1.70
2022-12-29T01:20:03.384Z,1.40
2022-12-29T01:22:30.163Z,1.08
2022-12-29T01:24:56.882Z,1.50
2022-12-29T01:27:23.518Z,1.15
2022-12-29T01:29:50.245Z,3.80
2022-12-29T01:32:17.587Z,1.98
2022-12-29T01:34:44.955Z,2.95
2022-12-29T01:37:12.340Z,1.30
2022-12-29T01:39:39.075Z,2.78
2022-12-29T01:42:06.227Z,1.33
2022-12-29T01:44:52.920Z,2.08
2022-12-29T01:47:49.478Z,1.60
2022-12-29T01:50:36.853Z,1.25
2022-12-29T01:53:16.519Z,0.98
2022-12-29T01:55:49.931Z,1.00
2022-12-29T01:58:21.097Z,0.60
2022-12-29T02:00:47.835Z,1.17
2022-12-29T02:03:16.385Z,1.27
2022-12-29T02:05:56.552Z,1.30
2022-12-29T02:08:26.983Z,1.80
2022-12-29T02:10:54.926Z,2.65
2022-12-29T02:13:21.606Z,1.00
2022-12-29T02:15:54.168Z,0.80
2022-12-29T02:19:04.599Z,1.25
2022-12-29T02:21:59.267Z,0.82
2022-12-29T02:24:29.016Z,0.70
2022-12-29T02:27:26.483Z,4.05
2022-12-29T02:30:19.221Z,1.00
2022-12-29T02:32:54.753Z,0.63
2022-12-29T02:35:39.889Z,1.35
2022-12-29T02:38:32.635Z,0.98
2022-12-29T02:41:17.522Z,1.83
2022-12-29T02:43:48.774Z,1.65
2022-12-29T02:46:38.000Z,0.60
2022-12-29T02:49:27.267Z,2.53
2022-12-29T02:52:16.834Z,1.50
2022-12-29T02:54:43.888Z,1.08
2022-12-29T02:57:22.668Z,1.30
2022-12-29T02:59:54.477Z,1.77
2022-12-29T03:02:59.621Z,1.48
2022-12-29T03:06:07.887Z,0.90
2022-12-29T03:09:02.904Z,1.42
2022-12-29T03:11:59.099Z,0.90
2022-12-29T03:15:03.482Z,1.42
2022-12-29T03:17:59.660Z,1.83
2022-12-29T03:20:32.834Z,1.23
2022-12-29T03:23:02.787Z,0.80
2022-12-29T03:25:33.171Z,2.50
2022-12-29T03:28:12.384Z,0.82
2022-12-29T03:30:41.307Z,1.15
2022-12-29T03:33:12.827Z,0.70
2022-12-29T03:35:43.028Z,0.70
2022-12-29T03:38:15.900Z,0.70
2022-12-29T03:40:45.952Z,2.28
2022-12-29T03:43:13.752Z,1.85
2022-12-29T03:45:41.323Z,1.58
2022-12-29T03:48:08.107Z,1.85
2022-12-29T03:50:34.974Z,1.25
2022-12-29T03:53:03.285Z,1.20
2022-12-29T03:55:29.975Z,1.30
2022-12-29T03:57:56.688Z,2.30
2022-12-29T04:00:23.327Z,1.33
2022-12-29T04:02:50.121Z,1.45
2022-12-29T04:05:16.947Z,0.80
2022-12-29T04:07:43.678Z,2.05
2022-12-29T04:10:10.408Z,1.20
2022-12-29T04:12:37.085Z,1.90
2022-12-29T04:15:04.531Z,0.68
2022-12-29T04:17:31.202Z,0.70
2022-12-29T04:20:17.823Z,0.63
2022-12-29T04:22:44.612Z,0.80
2022-12-29T04:25:11.455Z,0.70
2022-12-29T04:27:38.268Z,0.70
2022-12-29T04:30:05.502Z,0.75
2022-12-29T04:32:32.171Z,3.03
2022-12-29T04:34:58.862Z,1.30
2022-12-29T04:37:25.617Z,0.70
2022-12-29T04:39:52.299Z,0.98
2022-12-29T04:42:18.962Z,1.05
2022-12-29T04:44:45.679Z,1.95
2022-12-29T04:47:12.371Z,0.82
2022-12-29T04:49:39.045Z,1.08
2022-12-29T04:52:05.856Z,0.90
2022-12-29T04:54:32.518Z,1.70
2022-12-29T04:56:59.217Z,1.77
2022-12-29T04:59:25.897Z,0.98
2022-12-29T05:01:52.625Z,1.00
2022-12-29T05:04:19.424Z,1.08
2022-12-29T05:06:46.053Z,2.35
2022-12-29T05:09:12.721Z,1.90
2022-12-29T05:11:39.397Z,1.85
2022-12-29T05:14:06.061Z,2.40
2022-12-29T05:16:32.937Z,2.55
2022-12-29T05:18:59.673Z,1.40
2022-12-29T05:21:26.374Z,1.13
2022-12-29T05:23:52.994Z,1.73
2022-12-29T05:26:19.760Z,2.10
2022-12-29T05:28:46.532Z,1.77
2022-12-29T05:31:13.234Z,2.03
2022-12-29T05:33:40.056Z,1.27
2022-12-29T05:36:08.404Z,0.80
2022-12-29T05:38:35.747Z,1.92
2022-12-29T05:41:04.176Z,1.80
2022-12-29T05:43:30.967Z,1.55
2022-12-29T05:45:58.493Z,1.23
2022-12-29T05:48:25.217Z,1.42
2022-12-29T05:50:52.772Z,1.30
2022-12-29T05:53:19.612Z,2.83
2022-12-29T05:55:51.460Z,1.70
2022-12-29T05:58:18.714Z,1.60
2022-12-29T06:00:45.499Z,3.15
2022-12-29T06:03:12.510Z,1.73
2022-12-29T06:05:39.283Z,1.30
2022-12-29T06:08:06.031Z,2.28
2022-12-29T06:10:32.776Z,3.35
2022-12-29T06:12:59.555Z,1.45
2022-12-29T06:15:26.254Z,2.72
2022-12-29T06:17:52.918Z,2.42
2022-12-29T06:20:20.785Z,4.47
2022-12-29T06:22:47.596Z,2.38
2022-12-29T06:25:14.461Z,1.20
2022-12-29T06:27:41.290Z,8.43
2022-12-29T06:30:08.825Z,4.32
2022-12-29T06:32:36.065Z,4.45
2022-12-29T06:35:04.422Z,1.50
2022-12-29T06:37:31.384Z,1.98
2022-12-29T06:39:58.057Z,1.55
2022-12-29T06:42:24.820Z,1.40
2022-12-29T06:44:51.616Z,3.15
2022-12-29T06:47:18.279Z,3.35
2022-12-29T06:49:45.223Z,1.77
2022-12-29T06:52:13.196Z,1.85
2022-12-29T06:54:40.209Z,1.20
2022-12-29T06:57:09.449Z,1.55
2022-12-29T06:59:36.217Z,2.30
2022-12-29T07:02:03.466Z,1.83
2022-12-29T07:04:30.488Z,2.35
2022-12-29T07:06:57.227Z,4.70
2022-12-29T07:09:23.907Z,1.95
2022-12-29T07:11:51.317Z,2.80
2022-12-29T07:14:18.011Z,1.63
2022-12-29T07:16:44.836Z,3.00
2022-12-29T07:19:11.655Z,2.95
2022-12-29T07:21:38.415Z,3.60
2022-12-29T07:24:05.614Z,2.42
2022-12-29T07:26:36.344Z,2.65
2022-12-29T07:29:05.080Z,1.50
2022-12-29T07:31:32.208Z,2.67
2022-12-29T07:33:58.959Z,1.48
2022-12-29T07:36:30.777Z,1.65
2022-12-29T07:39:00.788Z,1.65
2022-12-29T07:41:27.568Z,2.65
2022-12-29T07:43:54.251Z,1.45
2022-12-29T07:46:54.083Z,1.20
2022-12-29T07:49:07.726Z,2.53
2022-12-29T07:51:34.494Z,1.05
2022-12-29T07:54:01.774Z,0.73
2022-12-29T07:56:28.526Z,1.50
2022-12-29T07:58:55.240Z,2.95
2022-12-29T08:01:24.319Z,0.95
2022-12-29T08:03:56.883Z,3.58
2022-12-29T08:06:24.681Z,1.23
2022-12-29T08:08:51.350Z,2.28
2022-12-29T08:11:18.073Z,1.88
2022-12-29T08:13:44.738Z,1.90
2022-12-29T08:16:11.478Z,0.80
2022-12-29T08:18:38.232Z,1.17
2022-12-29T08:21:05.472Z,3.00
2022-12-29T08:23:32.886Z,1.35
2022-12-29T08:26:01.246Z,4.70
2022-12-29T08:28:28.065Z,1.45
2022-12-29T08:30:55.329Z,1.45
2022-12-29T08:33:22.011Z,3.85
2022-12-29T08:35:49.010Z,0.88
2022-12-29T08:38:15.774Z,0.75
2022-12-29T08:40:42.597Z,1.30
2022-12-29T08:43:09.321Z,1.70
2022-12-29T08:45:36.111Z,2.03
2022-12-29T08:48:03.175Z,1.10
2022-12-29T08:50:29.841Z,1.40
2022-12-29T08:52:56.483Z,0.55
2022-12-29T08:55:23.459Z,1.08
2022-12-29T08:57:50.907Z,2.80
2022-12-29T09:00:17.745Z,0.70
2022-12-29T09:02:44.889Z,2.22
2022-12-29T09:05:11.717Z,1.83
2022-12-29T09:07:38.511Z,2.15
2022-12-29T09:10:05.727Z,5.55
2022-12-29T09:12:36.425Z,1.20
2022-12-29T09:15:04.399Z,4.43
2022-12-29T09:17:46.461Z,1.00
2022-12-29T09:22:41.287Z,3.90
2022-12-29T09:25:09.314Z,3.90
2022-12-29T09:27:36.823Z,2.55
2022-12-29T09:30:06.890Z,2.95
2022-12-29T09:32:36.066Z,3.50
2022-12-29T09:35:06.726Z,1.52
2022-12-29T09:37:33.450Z,2.55
2022-12-29T09:40:00.152Z,1.48
2022-12-29T09:42:34.183Z,3.35
2022-12-29T09:45:21.043Z,2.35
2022-12-29T09:47:47.955Z,3.75
2022-12-29T09:50:30.343Z,1.67
2022-12-29T09:53:19.980Z,1.83
2022-12-29T09:55:52.966Z,2.00
2022-12-29T09:58:26.145Z,0.90
2022-12-29T10:01:07.435Z,2.30
2022-12-29T10:03:43.306Z,2.87
2022-12-29T10:06:15.151Z,4.15
2022-12-29T10:08:52.764Z,1.50
2022-12-29T10:11:33.065Z,2.95
2022-12-29T10:14:03.405Z,1.58
2022-12-29T10:16:39.263Z,3.03
2022-12-29T10:19:26.981Z,2.70
2022-12-29T10:22:13.099Z,1.80
2022-12-29T10:24:40.963Z,4.75
2022-12-29T10:27:13.147Z,4.35
2022-12-29T10:29:55.016Z,4.60
2022-12-29T10:32:32.196Z,5.15
2022-12-29T10:35:09.150Z,3.47
2022-12-29T10:37:42.937Z,2.92
2022-12-29T10:40:42.443Z,3.15
2022-12-29T10:43:27.864Z,4.78
2022-12-29T10:45:58.124Z,3.13
2022-12-29T10:48:32.222Z,4.53
2022-12-29T10:51:02.312Z,6.25
2022-12-29T10:53:38.624Z,4.18
2022-12-29T10:56:18.194Z,5.72
2022-12-29T10:58:50.093Z,4.35
2022-12-29T11:04:00.195Z,5.20
2022-12-29T11:06:30.282Z,5.97
2022-12-29T11:09:14.905Z,4.05
2022-12-29T11:11:41.814Z,3.13
2022-12-29T11:14:20.188Z,4.93
2022-12-29T11:17:03.987Z,11.50
2022-12-29T11:19:39.063Z,10.35
2022-12-29T11:22:29.134Z,6.97
2022-12-29T11:25:05.596Z,5.00
2022-12-29T11:27:33.873Z,5.70
2022-12-29T11:30:00.591Z,4.53
2022-12-29T11:32:30.632Z,4.00
2022-12-29T11:34:59.601Z,5.00
2022-12-29T11:37:43.418Z,4.38
2022-12-29T11:40:19.642Z,6.35
2022-12-29T11:42:57.742Z,3.63
2022-12-29T11:45:27.802Z,3.08
2022-12-29T11:47:58.502Z,4.22
2022-12-29T11:50:38.600Z,3.05
2022-12-29T11:53:20.396Z,3.63
2022-12-29T11:55:59.500Z,5.80
2022-12-29T11:58:54.189Z,2.65
2022-12-29T12:01:29.926Z,5.45
2022-12-29T12:04:17.563Z,7.40
2022-12-29T12:06:57.986Z,6.40
2022-12-29T12:09:45.639Z,7.82
2022-12-29T12:12:25.700Z,2.63
2022-12-29T12:15:00.485Z,6.75
2022-12-29T12:17:39.354Z,3.60
2022-12-29T12:20:22.864Z,4.72
2022-12-29T12:23:09.642Z,7.90
2022-12-29T12:25:41.559Z,4.90
2022-12-29T12:28:21.691Z,4.13
2022-12-29T12:30:58.342Z,4.50
2022-12-29T12:33:31.081Z,7.68
2022-12-29T12:36:16.368Z,3.22
2022-12-29T12:39:06.328Z,5.53
2022-12-29T12:41:47.917Z,6.97
2022-12-29T12:44:32.497Z,7.80
2022-12-29T12:47:16.722Z,1.67
2022-12-29T12:49:52.188Z,3.75
2022-12-29T12:52:39.088Z,5.38
2022-12-29T12:55:34.388Z,3.83
2022-12-29T12:58:24.108Z,4.55
2022-12-29T13:01:28.384Z,4.32
2022-12-29T13:04:14.142Z,7.00
2022-12-29T13:07:11.453Z,6.68
2022-12-29T13:09:47.359Z,8.00
2022-12-29T13:12:25.162Z,13.35
2022-12-29T13:15:01.003Z,4.28
2022-12-29T13:17:34.012Z,7.25
2022-12-29T13:20:24.653Z,4.32
2022-12-29T13:23:20.757Z,7.93
2022-12-29T13:26:02.963Z,6.78
2022-12-29T13:31:51.831Z,7.53
2022-12-29T13:34:29.710Z,4.90
2022-12-29T13:37:03.598Z,4.35
2022-12-29T13:39:35.151Z,8.43
2022-12-29T13:42:04.386Z,4.50
2022-12-29T13:44:58.414Z,6.22
2022-12-29T13:47:45.192Z,5.80
2022-12-29T13:50:27.446Z,5.35
2022-12-29T13:53:07.774Z,6.35
2022-12-29T13:55:42.320Z,8.80
2022-12-29T13:58:12.844Z,8.45
2022-12-29T14:00:48.863Z,6.43
2022-12-29T14:03:42.118Z,5.53
2022-12-29T14:06:15.126Z,7.70
2022-12-29T14:08:42.405Z,4.68
2022-12-29T14:11:12.202Z,3.70
2022-12-29T14:13:41.409Z,8.02
2022-12-29T14:16:11.810Z,11.05
2022-12-29T14:18:45.098Z,6.05
2022-12-29T14:21:14.819Z,6.20
2022-12-29T14:23:43.924Z,6.95
2022-12-29T14:26:14.610Z,5.65
2022-12-29T14:28:43.655Z,7.13
2022-12-29T14:31:16.669Z,7.15
2022-12-29T14:34:12.541Z,4.03
2022-12-29T14:36:54.622Z,5.88
2022-12-29T14:39:36.002Z,8.40
2022-12-29T14:42:11.661Z,6.15
2022-12-29T14:44:48.957Z,7.88
2022-12-29T14:47:38.497Z,5.38
2022-12-29T14:50:26.033Z,5.43
2022-12-29T14:53:03.788Z,6.45
2022-12-29T14:55:41.553Z,4.25
2022-12-29T14:58:15.030Z,7.50
2022-12-29T15:00:43.349Z,8.98
2022-12-29T15:03:25.316Z,4.00
2022-12-29T15:05:53.821Z,9.18
2022-12-29T15:08:33.085Z,3.90
2022-12-29T15:11:03.394Z,8.57
2022-12-29T15:13:38.846Z,5.43
2022-12-29T15:16:06.211Z,8.00
2022-12-29T15:18:34.175Z,5.35
2022-12-29T15:21:06.642Z,5.40
2022-12-29T15:23:35.886Z,5.18
2022-12-29T15:26:08.524Z,7.50
2022-12-29T15:28:44.324Z,3.95
2022-12-29T15:31:29.993Z,6.55
2022-12-29T15:34:11.402Z,11.43
2022-12-29T15:36:40.003Z,5.65
2022-12-29T15:39:31.297Z,6.47
2022-12-29T15:42:05.242Z,6.30
2022-12-29T15:44:43.437Z,7.63
2022-12-29T15:47:15.358Z,6.53
2022-12-29T15:49:44.601Z,7.75
2022-12-29T15:52:12.127Z,5.07
2022-12-29T15:54:43.037Z,5.03
2022-12-29T15:57:23.816Z,8.45
2022-12-29T15:59:51.445Z,8.25
2022-12-29T16:02:19.505Z,9.15
2022-12-29T16:05:16.233Z,4.95
2022-12-29T16:07:41.598Z,7.53
2022-12-29T16:10:39.768Z,7.13
2022-12-29T16:13:42.734Z,5.97
2022-12-29T16:16:35.402Z,8.88
2022-12-29T16:19:22.607Z,7.45
2022-12-29T16:21:49.817Z,6.45
2022-12-29T16:24:23.561Z,7.57
2022-12-29T16:26:59.309Z,10.05
2022-12-29T16:29:26.834Z,9.07
2022-12-29T16:32:01.539Z,9.82
2022-12-29T16:34:33.963Z,5.93
2022-12-29T16:37:03.585Z,11.27
2022-12-29T16:39:40.353Z,5.43
2022-12-29T16:42:36.201Z,9.02
2022-12-29T16:45:22.408Z,5.85
2022-12-29T16:48:07.524Z,5.13
2022-12-29T16:50:36.212Z,5.45
2022-12-29T16:53:04.950Z,7.35
2022-12-29T16:55:32.165Z,8.23
2022-12-29T16:58:00.921Z,10.48
2022-12-29T17:00:30.178Z,12.50
2022-12-29T17:03:01.893Z,7.65
2022-12-29T17:05:28.924Z,9.55
2022-12-29T17:08:01.615Z,6.40
2022-12-29T17:10:48.476Z,8.65
2022-12-29T17:13:15.408Z,7.03
2022-12-29T17:15:42.201Z,10.25
2022-12-29T17:18:13.901Z,7.85
2022-12-29T17:20:41.242Z,6.97
2022-12-29T17:23:19.744Z,5.13
2022-12-29T17:25:51.703Z,8.45
2022-12-29T17:28:30.991Z,6.38
2022-12-29T17:31:07.000Z,9.20
2022-12-29T17:33:38.765Z,5.97
2022-12-29T17:36:05.684Z,8.07
2022-12-29T17:38:35.843Z,7.93
2022-12-29T17:41:07.337Z,8.07
2022-12-29T17:43:36.960Z,6.10
2022-12-29T17:46:07.043Z,5.32
2022-12-29T17:48:34.076Z,5.97
2022-12-29T17:51:00.890Z,10.90
2022-12-29T17:53:30.079Z,8.00
2022-12-29T17:55:57.225Z,7.43
2022-12-29T17:58:26.299Z,6.03
2022-12-29T18:00:55.832Z,12.70
2022-12-29T18:03:30.472Z,13.38
2022-12-29T18:05:57.903Z,10.85
2022-12-29T18:08:24.627Z,10.65
2022-12-29T18:10:53.881Z,12.98
2022-12-29T18:13:40.352Z,7.82
2022-12-29T18:16:13.624Z,12.82
2022-12-29T18:18:40.639Z,9.63
2022-12-29T18:21:19.133Z,10.73
2022-12-29T18:23:46.179Z,10.50
2022-12-29T18:26:27.323Z,10.73
2022-12-29T18:28:58.898Z,8.45
2022-12-29T18:31:33.728Z,9.80
2022-12-29T18:34:07.243Z,9.65
2022-12-29T18:36:33.956Z,13.63
2022-12-29T18:39:00.749Z,14.15
2022-12-29T18:41:29.715Z,10.68
2022-12-29T18:43:57.338Z,12.63
2022-12-29T18:46:24.611Z,10.85
2022-12-29T18:48:52.703Z,14.35
2022-12-29T18:51:22.260Z,10.95
2022-12-29T18:53:49.753Z,13.20
2022-12-29T18:56:16.500Z,10.23
2022-12-29T18:58:43.198Z,12.23
2022-12-29T19:01:20.828Z,9.90
2022-12-29T19:03:48.208Z,7.75
2022-12-29T19:06:15.000Z,18.38
2022-12-29T19:08:42.079Z,11.77
2022-12-29T19:11:09.054Z,10.68
2022-12-29T19:13:35.899Z,9.50
2022-12-29T19:16:08.683Z,8.30
2022-12-29T19:18:44.562Z,14.90
2022-12-29T19:21:13.228Z,11.77
2022-12-29T19:23:40.187Z,10.43
2022-12-29T19:26:07.028Z,17.52
2022-12-29T19:28:33.705Z,13.30
2022-12-29T19:31:03.589Z,11.40
2022-12-29T19:33:30.461Z,8.52
2022-12-29T19:36:03.375Z,11.43
2022-12-29T19:38:31.187Z,15.10
2022-12-29T19:40:58.059Z,11.65
2022-12-29T19:43:24.755Z,11.57
2022-12-29T19:45:52.453Z,16.27
2022-12-29T19:48:20.485Z,8.13
2022-12-29T19:50:48.043Z,10.00
2022-12-29T19:53:15.242Z,10.52
2022-12-29T19:55:46.795Z,10.35
2022-12-29T19:58:15.005Z,12.50
2022-12-29T20:00:43.138Z,14.52
2022-12-29T20:03:10.484Z,7.88
2022-12-29T20:05:38.788Z,10.10
2022-12-29T20:08:05.588Z,13.90
2022-12-29T20:10:32.340Z,9.95
2022-12-29T20:12:59.130Z,10.73
2022-12-29T20:15:26.073Z,13.30
2022-12-29T20:20:39.778Z,9.60
2022-12-29T20:23:06.586Z,13.57
2022-12-29T20:25:48.615Z,19.02
2022-12-29T20:28:15.993Z,17.02
2022-12-29T20:30:43.581Z,16.50
2022-12-29T20:33:10.292Z,22.27
2022-12-29T20:35:37.598Z,20.98
2022-12-29T20:38:04.929Z,19.48
2022-12-29T20:40:31.861Z,11.13
2022-12-29T20:42:58.521Z,12.85
2022-12-29T20:45:25.370Z,13.77
2022-12-29T20:47:52.228Z,13.30
2022-12-29T20:50:22.042Z,11.70
2022-12-29T20:52:49.324Z,13.13
2022-12-29T20:55:16.112Z,9.63
2022-12-29T20:58:23.279Z,6.95
2022-12-29T21:00:30.471Z,13.63
2022-12-29T21:03:03.483Z,15.07
2022-12-29T21:05:30.303Z,15.07
2022-12-29T21:07:59.488Z,16.65
2022-12-29T21:10:26.283Z,14.38
2022-12-29T21:12:53.300Z,9.15
2022-12-29T21:15:20.237Z,7.43
2022-12-29T21:17:47.098Z,31.83
2022-12-29T21:20:19.836Z,16.33
2022-12-29T21:22:47.656Z,11.98
2022-12-29T21:25:14.877Z,16.52
2022-12-29T21:27:44.645Z,8.45
2022-12-29T21:30:13.319Z,13.30
2022-12-29T21:32:41.178Z,16.27
2022-12-29T21:35:08.981Z,10.88
2022-12-29T21:37:36.337Z,13.20
2022-12-29T21:40:04.815Z,12.45
2022-12-29T21:42:31.740Z,10.93
2022-12-29T21:45:20.884Z,11.63
2022-12-29T21:48:07.038Z,12.32
2022-12-29T21:50:33.825Z,14.13
2022-12-29T21:53:00.587Z,11.32
2022-12-29T21:55:27.284Z,13.20
2022-12-29T21:58:12.278Z,18.60
2022-12-29T22:01:14.282Z,11.57
2022-12-29T22:03:59.546Z,11.50
2022-12-29T22:06:44.934Z,9.35
2022-12-29T22:09:30.232Z,8.73
2022-12-29T22:12:15.139Z,12.55
2022-12-29T22:14:41.838Z,13.63
2022-12-29T22:17:14.029Z,13.98
2022-12-29T22:19:41.070Z,10.27
2022-12-29T22:22:07.900Z,12.70
2022-12-29T22:24:34.661Z,9.30
2022-12-29T22:27:01.367Z,4.70
2022-12-29T22:29:28.128Z,13.63
2022-12-29T22:31:54.897Z,12.90
2022-12-29T22:34:21.562Z,13.73
2022-12-29T22:36:48.751Z,12.50
2022-12-29T22:39:16.135Z,7.25
2022-12-29T22:41:45.539Z,12.02
2022-12-29T22:44:12.269Z,13.98
2022-12-29T22:46:39.047Z,11.88
2022-12-29T22:49:05.738Z,12.75
2022-12-29T22:51:32.381Z,11.98
2022-12-29T22:54:00.419Z,5.68
2022-12-29T22:56:27.085Z,8.82
2022-12-29T22:58:53.788Z,12.38
2022-12-29T23:01:23.994Z,11.70
2022-12-29T23:03:50.803Z,9.38
2022-12-29T23:06:18.062Z,6.82
2022-12-29T23:08:44.903Z,13.20
2022-12-29T23:11:13.227Z,14.68
2022-12-29T23:13:41.569Z,12.43
2022-12-29T23:16:08.493Z,15.82
2022-12-29T23:18:35.208Z,11.75
2022-12-29T23:21:02.881Z,15.05
2022-12-29T23:23:49.644Z,13.52
2022-12-29T23:26:18.435Z,14.10
2022-12-29T23:28:45.588Z,10.40
2022-12-29T23:31:12.439Z,19.77
2022-12-29T23:33:39.155Z,12.82
2022-12-29T23:36:06.317Z,9.98
2022-12-29T23:38:33.433Z,11.27
2022-12-29T23:41:00.190Z,12.32
2022-12-29T23:43:26.900Z,10.52
2022-12-29T23:45:53.615Z,11.90
2022-12-29T23:48:20.300Z,13.50
2022-12-29T23:50:47.320Z,13.50
2022-12-29T23:53:14.369Z,10.40
2022-12-29T23:55:43.137Z,13.07
2022-12-29T23:58:10.944Z,13.15
